Time;durP1;ratioP1;P1;durP2;ratioP2;P2;SDS_P1;SDS_P2;PMS_P1;PMS_P2;Temp;Humidity;BMP_temperature;BMP_pressure;BME280_temperature;BME280_humidity;BME280_pressure;Samples;Min_cycle;Max_cycle;Signal;HPM_P1;HPM_P2
2023/10/12 00:02:21;;;;;;;6.30;3.20;;;19.80;99.90;;;;;;5026454;28;20217;-72
2023/10/12 00:05:03;;;;;;;7.50;3.65;;;19.80;99.90;;;;;;5012059;28;20566;-73
2023/10/12 00:07:42;;;;;;;7.40;3.17;;;20.00;99.90;;;;;;5032523;28;20290;-76
2023/10/12 00:12:47;;;;;;;6.82;3.33;;;19.70;99.90;;;;;;5026460;28;20196;-65
2023/10/12 00:15:25;;;;;;;16.85;4.22;;;19.80;99.90;;;;;;5029651;28;20704;-65
2023/10/12 00:17:56;;;;;;;4.30;3.15;;;19.70;99.90;;;;;;5028312;28;20200;-64
2023/10/12 00:22:59;;;;;;;15.05;3.60;;;19.80;99.90;;;;;;5026852;28;20667;-68
2023/10/12 00:25:26;;;;;;;8.10;4.05;;;19.80;99.90;;;;;;5032869;28;20566;-66
2023/10/12 00:27:53;;;;;;;9.70;5.03;;;19.90;99.90;;;;;;5023993;28;20208;-65
2023/10/12 00:30:20;;;;;;;5.93;3.72;;;19.90;99.90;;;;;;5026413;28;20193;-65
2023/10/12 00:32:48;;;;;;;12.68;3.60;;;19.80;99.90;;;;;;5014944;28;20339;-67
2023/10/12 00:35:17;;;;;;;3.88;3.05;;;19.80;99.90;;;;;;5020755;28;20302;-65
2023/10/12 00:37:44;;;;;;;9.35;3.63;;;19.80;99.90;;;;;;5037901;28;20291;-67
2023/10/12 00:40:26;;;;;;;5.97;2.95;;;19.80;99.90;;;;;;5023836;28;20192;-67
2023/10/12 00:42:53;;;;;;;8.35;4.57;;;19.80;99.90;;;;;;5027384;28;20715;-66
2023/10/12 00:45:28;;;;;;;9.63;3.50;;;19.90;99.90;;;;;;5031923;28;20629;-65
2023/10/12 00:48:06;;;;;;;9.70;5.40;;;19.90;99.90;;;;;;5014594;28;20195;-64
2023/10/12 00:50:36;;;;;;;7.00;4.28;;;19.80;99.90;;;;;;5026690;28;20263;-65
2023/10/12 00:56:03;;;;;;;7.18;3.47;;;19.80;99.90;;;;;;4972177;28;20279;-73
2023/10/12 00:58:31;;;;;;;7.80;3.20;;;19.80;99.90;;;;;;5029798;28;20583;-70
2023/10/12 01:01:03;;;;;;;5.75;3.25;;;19.80;99.90;;;;;;5030083;28;20197;-72
2023/10/12 01:03:36;;;;;;;5.40;3.70;;;19.90;99.90;;;;;;5028925;28;20184;-70
2023/10/12 01:08:43;;;;;;;5.03;3.30;;;19.90;99.90;;;;;;5018412;28;20319;-72
2023/10/12 01:11:19;;;;;;;7.63;4.50;;;19.80;99.90;;;;;;5028497;28;20568;-70
2023/10/12 01:13:49;;;;;;;9.38;4.22;;;19.80;99.90;;;;;;5011575;28;20211;-72
2023/10/12 01:16:23;;;;;;;5.47;3.70;;;19.80;99.90;;;;;;5013531;28;20231;-71
2023/10/12 01:19:00;;;;;;;13.98;4.03;;;19.70;99.90;;;;;;5008189;28;20228;-70
2023/10/12 01:21:28;;;;;;;6.07;3.67;;;19.70;99.90;;;;;;5012714;28;20238;-72
2023/10/12 01:24:11;;;;;;;7.30;2.97;;;19.60;99.90;;;;;;5029709;28;20200;-71
2023/10/12 01:26:48;;;;;;;7.43;3.25;;;19.70;99.90;;;;;;5030567;28;20253;-70
2023/10/12 01:29:25;;;;;;;5.03;3.33;;;19.70;99.90;;;;;;5026479;28;20671;-73
2023/10/12 01:34:56;;;;;;;5.55;3.10;;;19.70;99.90;;;;;;4987375;28;20205;-74
2023/10/12 01:37:27;;;;;;;6.65;4.00;;;19.70;99.90;;;;;;5009382;28;20626;-72
2023/10/12 01:45:18;;;;;;;6.45;3.67;;;19.50;99.90;;;;;;5030059;28;20680;-72
2023/10/12 01:47:55;;;;;;;10.40;3.95;;;19.50;99.90;;;;;;5029928;28;20196;-74
2023/10/12 01:50:28;;;;;;;10.02;3.92;;;19.50;99.90;;;;;;5027908;28;20196;-72
2023/10/12 01:52:58;;;;;;;9.43;4.00;;;19.40;99.90;;;;;;5028739;28;20207;-66
2023/10/12 01:55:29;;;;;;;9.10;3.95;;;19.50;99.90;;;;;;5026309;28;20236;-66
2023/10/12 01:57:57;;;;;;;5.18;3.50;;;19.50;99.90;;;;;;5028942;28;20207;-66
2023/10/12 02:04:24;;;;;;;5.97;3.25;;;19.40;99.90;;;;;;5024886;28;20215;-64
2023/10/12 02:06:52;;;;;;;9.27;4.35;;;19.40;99.90;;;;;;5005937;28;20592;-64
2023/10/12 02:09:22;;;;;;;7.57;3.38;;;19.20;99.90;;;;;;5024543;28;20326;-65
2023/10/12 02:11:57;;;;;;;8.85;4.28;;;19.30;99.90;;;;;;5020427;28;20222;-67
2023/10/12 02:14:33;;;;;;;6.78;4.15;;;19.30;99.90;;;;;;5026067;28;20230;-66
2023/10/12 02:17:04;;;;;;;8.32;3.80;;;19.10;99.90;;;;;;5029377;28;20199;-71
2023/10/12 02:19:44;;;;;;;7.72;4.18;;;19.30;99.90;;;;;;5025753;28;20658;-71
2023/10/12 02:22:24;;;;;;;10.15;4.15;;;19.20;99.90;;;;;;5021914;28;20652;-70
2023/10/12 02:25:03;;;;;;;9.82;4.70;;;19.10;99.90;;;;;;5027800;28;20629;-70
2023/10/12 02:27:31;;;;;;;8.07;4.32;;;19.20;99.90;;;;;;5027188;28;20207;-68
2023/10/12 02:29:59;;;;;;;10.93;6.05;;;19.30;99.90;;;;;;5036236;28;20683;-68
2023/10/12 02:32:26;;;;;;;17.15;9.57;;;19.40;99.90;;;;;;5031169;28;20189;-69
2023/10/12 02:34:56;;;;;;;18.00;9.52;;;19.30;99.90;;;;;;5027646;28;20699;-72
2023/10/12 02:37:24;;;;;;;17.55;10.10;;;19.10;99.90;;;;;;5026359;28;20187;-70
2023/10/12 02:39:54;;;;;;;20.67;11.10;;;19.10;99.90;;;;;;5019164;28;20653;-70
2023/10/12 02:42:22;;;;;;;17.40;9.73;;;19.10;99.90;;;;;;5026114;28;20269;-69
2023/10/12 02:47:30;;;;;;;10.63;7.57;;;19.00;99.90;;;;;;5027388;28;20231;-67
2023/10/12 02:50:15;;;;;;;16.17;7.30;;;19.00;99.90;;;;;;5027807;28;20188;-68
2023/10/12 02:52:46;;;;;;;15.25;8.95;;;18.90;99.90;;;;;;5025220;28;20239;-69
2023/10/12 02:58:14;;;;;;;19.02;10.50;;;18.90;99.90;;;;;;5025336;28;20596;-70
2023/10/12 03:06:07;;;;;;;17.13;7.90;;;18.20;99.90;;;;;;5003912;28;20790;-71
2023/10/12 03:08:58;;;;;;;15.40;9.40;;;17.90;99.90;;;;;;5010399;28;20302;-71
2023/10/12 03:11:25;;;;;;;15.50;8.95;;;17.80;99.90;;;;;;5028329;28;20200;-71
2023/10/12 03:16:52;;;;;;;18.52;8.40;;;18.10;99.90;;;;;;5004014;28;20789;-71
2023/10/12 03:21:47;;;;;;;12.13;8.27;;;17.70;99.90;;;;;;5030776;28;20196;-70
2023/10/12 03:24:16;;;;;;;12.75;8.35;;;17.50;99.90;;;;;;5028381;28;20201;-63
2023/10/12 03:27:10;;;;;;;12.95;7.57;;;17.40;99.90;;;;;;5021687;28;20201;-64
2023/10/12 03:29:43;;;;;;;13.82;7.70;;;17.40;99.90;;;;;;5039493;28;20242;-70
2023/10/12 03:32:11;;;;;;;12.18;7.00;;;17.10;99.90;;;;;;5031730;28;20692;-69
2023/10/12 03:37:14;;;;;;;16.05;7.97;;;17.30;99.90;;;;;;5027067;28;20192;-70
2023/10/12 03:45:07;;;;;;;18.90;8.70;;;17.00;99.90;;;;;;5026363;28;20204;-68
2023/10/12 03:48:02;;;;;;;14.82;7.78;;;17.10;99.90;;;;;;5012390;28;20715;-64
2023/10/12 03:50:36;;;;;;;14.02;8.32;;;17.00;99.90;;;;;;5026636;28;20184;-65
2023/10/12 03:53:05;;;;;;;19.83;9.88;;;17.00;99.90;;;;;;5026828;28;21104;-66
2023/10/12 03:55:34;;;;;;;14.40;8.60;;;17.00;99.90;;;;;;5013338;28;20245;-64
2023/10/12 03:58:07;;;;;;;17.02;8.90;;;16.80;99.90;;;;;;5028591;28;20287;-65
2023/10/12 04:03:12;;;;;;;17.63;8.63;;;16.70;99.90;;;;;;5031205;28;20189;-64
2023/10/12 04:06:15;;;;;;;18.65;8.65;;;16.60;99.90;;;;;;5010025;28;21040;-66
2023/10/12 04:16:09;;;;;;;11.93;7.43;;;16.60;99.90;;;;;;5028054;28;20770;-64
2023/10/12 04:19:29;;;;;;;12.73;7.82;;;16.70;99.90;;;;;;5030685;28;20216;-65
2023/10/12 04:21:33;;;;;;;18.48;8.30;;;16.70;99.90;;;;;;5018641;28;20292;-64
2023/10/12 04:27:00;;;;;;;11.55;6.13;;;16.60;99.90;;;;;;5027001;28;20550;-65
2023/10/12 04:29:31;;;;;;;11.63;6.43;;;16.50;99.90;;;;;;5033172;28;20686;-67
2023/10/12 04:32:09;;;;;;;14.00;7.82;;;16.50;99.90;;;;;;5027502;28;20687;-65
2023/10/12 04:34:48;;;;;;;12.65;7.70;;;16.50;99.90;;;;;;5025684;28;20200;-64
2023/10/12 04:37:22;;;;;;;12.75;6.85;;;16.60;99.90;;;;;;5027418;28;20264;-63
2023/10/12 04:39:49;;;;;;;23.02;6.80;;;16.60;99.90;;;;;;5010214;28;20196;-66
2023/10/12 04:42:24;;;;;;;10.70;6.80;;;16.50;99.90;;;;;;5026430;28;20641;-63
2023/10/12 04:45:22;;;;;;;13.00;6.47;;;16.40;99.90;;;;;;5024673;28;20720;-63
2023/10/12 04:47:55;;;;;;;14.82;6.57;;;16.50;99.90;;;;;;5028154;28;20488;-64
2023/10/12 04:50:43;;;;;;;13.90;6.78;;;16.50;99.90;;;;;;5028661;28;20714;-68
2023/10/12 04:53:12;;;;;;;12.55;7.05;;;16.60;99.90;;;;;;5025905;28;20200;-63
2023/10/12 04:55:47;;;;;;;14.07;7.43;;;16.50;99.90;;;;;;5030115;28;20208;-67
2023/10/12 04:58:32;;;;;;;10.40;6.85;;;16.40;99.90;;;;;;5027973;28;20591;-64
2023/10/12 05:01:19;;;;;;;14.48;6.70;;;16.40;99.90;;;;;;5038048;28;20710;-67
2023/10/12 05:04:07;;;;;;;11.85;6.57;;;16.40;99.90;;;;;;5025747;28;20189;-67
2023/10/12 05:06:36;;;;;;;14.30;6.22;;;16.40;99.90;;;;;;5027708;28;20222;-67
2023/10/12 05:09:10;;;;;;;12.75;7.68;;;16.40;99.90;;;;;;5027207;28;20704;-67
2023/10/12 05:11:39;;;;;;;10.23;6.65;;;16.40;99.90;;;;;;5028130;28;20189;-68
2023/10/12 05:14:15;;;;;;;9.48;6.22;;;16.30;99.90;;;;;;5024341;28;20196;-68
2023/10/12 05:16:45;;;;;;;11.80;6.07;;;16.20;99.90;;;;;;5011044;28;20208;-68
2023/10/12 05:19:13;;;;;;;17.40;6.80;;;16.10;99.90;;;;;;5028554;28;20193;-68
2023/10/12 05:21:40;;;;;;;11.80;7.10;;;16.10;99.90;;;;;;5026282;28;20208;-68
2023/10/12 05:24:08;;;;;;;15.75;7.63;;;16.00;99.90;;;;;;5026464;28;20211;-68
2023/10/12 05:26:37;;;;;;;14.00;6.60;;;15.90;99.90;;;;;;5025625;28;20196;-67
2023/10/12 05:32:06;;;;;;;12.85;6.68;;;16.10;99.90;;;;;;5020021;28;20266;-69
2023/10/12 05:39:50;;;;;;;17.58;8.23;;;16.40;99.90;;;;;;5023801;28;20288;-68
2023/10/12 05:42:25;;;;;;;11.68;6.75;;;16.40;99.90;;;;;;5026706;28;20196;-68
2023/10/12 05:45:05;;;;;;;14.63;8.10;;;16.30;99.90;;;;;;5023947;28;20308;-69
2023/10/12 05:47:32;;;;;;;17.27;8.95;;;16.30;99.90;;;;;;5017881;28;20192;-63
2023/10/12 05:49:59;;;;;;;13.77;8.35;;;16.40;99.90;;;;;;5023455;28;20200;-65
2023/10/12 05:52:26;;;;;;;17.33;8.48;;;16.40;99.90;;;;;;5025117;28;20207;-67
2023/10/12 05:54:59;;;;;;;15.10;8.15;;;16.50;99.90;;;;;;5025021;28;20196;-67
2023/10/12 05:57:29;;;;;;;16.77;7.60;;;16.40;99.90;;;;;;5027413;28;20212;-67
2023/10/12 05:59:58;;;;;;;11.18;6.35;;;16.30;99.90;;;;;;5007130;28;20623;-63
2023/10/12 06:02:26;;;;;;;12.75;6.97;;;16.30;99.90;;;;;;5027118;28;20239;-64
2023/10/12 06:04:53;;;;;;;17.05;7.50;;;16.30;99.90;;;;;;5027504;28;20196;-71
2023/10/12 06:07:22;;;;;;;11.10;6.32;;;16.30;99.90;;;;;;5024009;28;20720;-70
2023/10/12 06:09:52;;;;;;;12.38;7.50;;;16.30;99.90;;;;;;5023259;28;20616;-70
2023/10/12 06:12:24;;;;;;;12.75;6.82;;;16.20;99.90;;;;;;5027501;28;20297;-70
2023/10/12 06:14:54;;;;;;;12.23;6.15;;;16.10;99.90;;;;;;5026174;28;20207;-70
2023/10/12 06:17:30;;;;;;;18.35;8.23;;;16.20;99.90;;;;;;5027712;28;20250;-70
2023/10/12 06:20:46;;;;;;;12.25;7.75;;;16.00;99.90;;;;;;5016066;28;20195;-68
2023/10/12 06:22:52;;;;;;;9.38;5.65;;;16.10;99.90;;;;;;5020947;28;20212;-69
2023/10/12 06:25:19;;;;;;;17.67;6.32;;;16.10;99.90;;;;;;5024268;28;20593;-70
2023/10/12 06:27:48;;;;;;;8.52;5.75;;;16.00;99.90;;;;;;5025705;28;20282;-71
2023/10/12 06:30:18;;;;;;;9.57;6.10;;;15.90;99.90;;;;;;5021490;28;20196;-69
2023/10/12 06:32:48;;;;;;;8.27;5.30;;;15.90;99.90;;;;;;5028188;28;20299;-73
2023/10/12 06:35:26;;;;;;;10.43;5.55;;;15.80;99.90;;;;;;5021334;28;20271;-69
2023/10/12 06:45:47;;;;;;;11.23;5.45;;;15.80;99.90;;;;;;5025880;28;20656;-70
2023/10/12 06:51:05;;;;;;;11.07;5.13;;;15.70;99.90;;;;;;5023695;28;20330;-66
2023/10/12 06:53:34;;;;;;;14.63;6.28;;;15.80;99.90;;;;;;5026417;28;20272;-70
2023/10/12 07:04:14;;;;;;;23.52;11.05;;;15.90;99.90;;;;;;5033111;28;20668;-64
2023/10/12 07:07:07;;;;;;;15.40;7.97;;;16.00;99.90;;;;;;5033778;28;20216;-64
2023/10/12 07:12:28;;;;;;;10.70;6.78;;;16.20;99.90;;;;;;4996345;28;20810;-64
2023/10/12 07:14:55;;;;;;;10.27;6.38;;;16.30;99.90;;;;;;5033888;28;20227;-64
2023/10/12 07:17:31;;;;;;;16.67;5.97;;;16.20;99.90;;;;;;5017561;28;20208;-64
2023/10/12 07:19:58;;;;;;;12.63;7.20;;;16.20;99.90;;;;;;5032642;28;20214;-65
2023/10/12 07:22:25;;;;;;;19.52;7.78;;;16.30;99.90;;;;;;5015429;28;20181;-65
2023/10/12 07:24:53;;;;;;;17.27;7.60;;;16.20;99.90;;;;;;5016418;28;20191;-64
2023/10/12 07:27:22;;;;;;;9.07;6.00;;;16.30;99.90;;;;;;5029275;28;20220;-69
2023/10/12 07:30:15;;;;;;;9.10;5.60;;;16.40;99.90;;;;;;5033532;28;20208;-64
2023/10/12 07:32:54;;;;;;;13.30;6.20;;;16.50;99.90;;;;;;5026999;28;20196;-66
2023/10/12 07:35:32;;;;;;;10.60;5.97;;;16.50;99.90;;;;;;5030861;28;20664;-63
2023/10/12 07:37:59;;;;;;;15.70;5.65;;;16.40;99.90;;;;;;5033971;28;20618;-64
2023/10/12 07:40:34;;;;;;;12.95;8.02;;;16.40;99.90;;;;;;5034552;28;20660;-63
2023/10/12 07:43:05;;;;;;;14.45;8.30;;;16.50;99.90;;;;;;5034515;28;20195;-64
2023/10/12 07:45:40;;;;;;;9.15;6.03;;;16.60;99.90;;;;;;5026747;28;20188;-64
2023/10/12 07:48:09;;;;;;;14.88;8.05;;;16.60;99.90;;;;;;5038134;28;20191;-63
2023/10/12 07:50:47;;;;;;;10.88;5.43;;;16.70;99.90;;;;;;5030928;28;20300;-64
2023/10/12 07:53:23;;;;;;;11.23;5.90;;;17.00;99.90;;;;;;5039041;28;20671;-64
2023/10/12 07:55:53;;;;;;;8.85;5.85;;;17.10;99.90;;;;;;5039269;28;20204;-63
2023/10/12 07:58:22;;;;;;;11.13;6.10;;;17.20;99.90;;;;;;5041772;28;20196;-65
2023/10/12 08:00:59;;;;;;;12.40;6.25;;;17.20;99.90;;;;;;5037138;28;20270;-64
2023/10/12 08:03:26;;;;;;;11.88;5.72;;;17.20;99.90;;;;;;5028911;28;20553;-63
2023/10/12 08:05:56;;;;;;;7.60;4.78;;;17.20;99.90;;;;;;5035444;28;20212;-75
2023/10/12 08:08:33;;;;;;;10.70;5.22;;;17.20;99.90;;;;;;5034152;28;20240;-70
2023/10/12 08:14:39;;;;;;;6.03;4.18;;;17.70;99.90;;;;;;4946833;28;20218;-71
2023/10/12 08:20:45;;;;;;;6.80;3.65;;;17.50;99.90;;;;;;5029415;28;20192;-75
2023/10/12 08:22:46;;;;;;;6.72;3.88;;;17.70;99.90;;;;;;5029506;28;20290;-70
2023/10/12 08:25:26;;;;;;;8.52;4.20;;;17.50;99.90;;;;;;5035986;28;20206;-71
2023/10/12 08:28:05;;;;;;;9.73;4.80;;;17.50;99.90;;;;;;5035366;28;20210;-70
2023/10/12 08:30:48;;;;;;;7.05;4.43;;;17.50;99.90;;;;;;5032956;28;20656;-69
2023/10/12 08:33:15;;;;;;;8.70;5.00;;;17.50;99.90;;;;;;5035191;28;20210;-73
2023/10/12 08:36:29;;;;;;;12.25;5.80;;;17.50;99.90;;;;;;5035493;28;20199;-70
2023/10/12 08:39:08;;;;;;;13.70;7.13;;;17.40;99.90;;;;;;5030995;28;20200;-70
2023/10/12 08:43:59;;;;;;;14.32;6.38;;;17.70;99.90;;;;;;5033283;28;20200;-71
2023/10/12 08:52:18;;;;;;;13.77;5.53;;;17.30;99.90;;;;;;5031685;28;20679;-71
2023/10/12 08:54:53;;;;;;;11.05;4.75;;;17.50;99.90;;;;;;5031921;28;20685;-73
2023/10/12 08:57:44;;;;;;;13.60;4.68;;;17.40;99.90;;;;;;5034017;28;21057;-76
2023/10/12 09:00:24;;;;;;;11.98;6.47;;;17.30;99.90;;;;;;5028179;28;20199;-68
2023/10/12 09:03:05;;;;;;;8.85;4.68;;;17.20;99.90;;;;;;5033353;28;20211;-70
2023/10/12 09:05:34;;;;;;;16.60;4.85;;;17.10;99.90;;;;;;5036334;28;20192;-66
2023/10/12 09:10:51;;;;;;;10.00;4.63;;;17.00;99.90;;;;;;5037265;28;20197;-63
2023/10/12 09:13:19;;;;;;;7.68;4.38;;;16.90;99.90;;;;;;5030860;28;20238;-63
2023/10/12 09:15:50;;;;;;;9.38;4.25;;;16.90;99.90;;;;;;5027646;28;20192;-63
2023/10/12 09:18:18;;;;;;;7.85;5.05;;;16.80;99.90;;;;;;5032439;28;20212;-62
2023/10/12 09:29:27;;;;;;;6.97;3.90;;;17.00;99.90;;;;;;5034848;28;20192;-63
2023/10/12 09:31:48;;;;;;;9.55;4.47;;;16.80;99.90;;;;;;5028021;28;20265;-64
2023/10/12 09:36:57;;;;;;;6.63;3.78;;;17.10;99.90;;;;;;5027941;28;20204;-63
2023/10/12 09:39:27;;;;;;;13.82;4.80;;;17.10;99.90;;;;;;5027078;28;20211;-63
2023/10/12 09:42:09;;;;;;;10.07;4.47;;;17.20;99.90;;;;;;5017337;28;20192;-64
2023/10/12 09:44:39;;;;;;;9.80;4.78;;;17.30;99.90;;;;;;5027168;28;20658;-72
2023/10/12 09:47:15;;;;;;;7.78;3.65;;;17.40;99.90;;;;;;5014871;28;20609;-64
2023/10/12 09:49:58;;;;;;;9.05;4.82;;;17.60;99.90;;;;;;5030898;28;20204;-66
2023/10/12 09:52:42;;;;;;;7.60;3.72;;;17.50;99.90;;;;;;5034099;28;20199;-65
2023/10/12 09:55:14;;;;;;;17.10;4.97;;;17.80;99.90;;;;;;5030127;28;20261;-65
2023/10/12 09:57:49;;;;;;;14.68;5.00;;;17.80;99.90;;;;;;5049468;28;20219;-67
2023/10/12 10:00:55;;;;;;;13.25;4.28;;;17.90;99.90;;;;;;5032329;28;20183;-65
2023/10/12 10:03:18;;;;;;;8.75;3.70;;;17.80;99.90;;;;;;5030086;28;20199;-76
2023/10/12 10:05:54;;;;;;;9.18;3.97;;;17.90;99.90;;;;;;5029626;28;20220;-64
2023/10/12 10:08:26;;;;;;;9.05;4.78;;;17.80;99.90;;;;;;5035648;28;20240;-69
2023/10/12 10:10:58;;;;;;;9.02;4.97;;;17.80;99.90;;;;;;5028785;28;20195;-65
2023/10/12 10:13:47;;;;;;;9.95;5.53;;;17.80;99.90;;;;;;5032987;28;20595;-65
2023/10/12 10:16:19;;;;;;;8.68;3.95;;;18.10;99.90;;;;;;5027281;28;20728;-73
2023/10/12 10:18:57;;;;;;;7.05;3.45;;;18.10;99.90;;;;;;5029520;28;20699;-77
2023/10/12 10:21:30;;;;;;;10.55;4.53;;;18.00;99.90;;;;;;5028793;28;20620;-70
2023/10/12 10:23:59;;;;;;;9.55;4.18;;;17.80;99.90;;;;;;5030825;28;20192;-72
2023/10/12 10:26:30;;;;;;;13.77;4.97;;;18.00;99.90;;;;;;5034317;28;20694;-65
2023/10/12 10:29:04;;;;;;;8.00;4.43;;;18.20;99.90;;;;;;5028937;28;20258;-65
2023/10/12 10:31:41;;;;;;;9.35;4.80;;;18.20;99.90;;;;;;5035749;28;20200;-65
2023/10/12 10:34:13;;;;;;;10.50;4.03;;;18.00;99.90;;;;;;5033425;28;20279;-65
2023/10/12 10:36:44;;;;;;;8.10;4.40;;;17.90;99.90;;;;;;5034333;28;20188;-67
2023/10/12 10:44:13;;;;;;;7.63;5.70;;;18.00;99.90;;;;;;5028145;28;20544;-63
2023/10/12 10:46:43;;;;;;;9.05;4.85;;;17.90;99.90;;;;;;5033755;28;20191;-68
2023/10/12 10:49:19;;;;;;;10.02;4.50;;;17.70;99.90;;;;;;5026904;28;20204;-66
2023/10/12 10:54:39;;;;;;;14.73;6.50;;;17.40;99.90;;;;;;5028848;28;20266;-68
2023/10/12 10:57:24;;;;;;;9.18;6.15;;;17.40;99.90;;;;;;5028925;28;20576;-71
2023/10/12 10:59:52;;;;;;;9.52;5.15;;;17.20;99.90;;;;;;5039349;28;20861;-67
2023/10/12 11:02:21;;;;;;;8.48;4.18;;;17.10;99.90;;;;;;5035728;28;20258;-64
2023/10/12 11:04:51;;;;;;;11.35;4.97;;;17.10;99.90;;;;;;5029655;28;20203;-73
2023/10/12 11:07:19;;;;;;;9.23;5.10;;;17.10;99.90;;;;;;5027793;28;20746;-66
2023/10/12 11:12:24;;;;;;;15.70;5.85;;;17.10;99.90;;;;;;5037344;28;20783;-64
2023/10/12 11:18:07;;;;;;;14.02;6.03;;;17.50;99.90;;;;;;5030502;28;20268;-65
2023/10/12 11:20:49;;;;;;;10.93;6.03;;;17.70;99.90;;;;;;5028026;28;20203;-66
2023/10/12 11:23:17;;;;;;;19.27;10.38;;;17.70;99.90;;;;;;5013988;28;20206;-65
2023/10/12 11:25:44;;;;;;;9.50;4.78;;;17.80;99.90;;;;;;5027707;28;20197;-69
2023/10/12 11:28:22;;;;;;;17.85;8.52;;;17.60;99.90;;;;;;5024245;28;20306;-69
2023/10/12 11:31:01;;;;;;;7.15;4.43;;;17.70;99.90;;;;;;5026373;28;20263;-72
2023/10/12 11:33:29;;;;;;;10.77;5.07;;;17.50;99.90;;;;;;5024594;28;20204;-69
2023/10/12 11:36:03;;;;;;;10.85;4.40;;;17.50;99.90;;;;;;5036684;28;20295;-74
2023/10/12 11:38:30;;;;;;;10.77;5.00;;;17.50;99.90;;;;;;5029159;28;20847;-70
2023/10/12 11:41:11;;;;;;;13.13;4.68;;;17.50;99.90;;;;;;5033318;28;20199;-70
2023/10/12 11:43:49;;;;;;;11.77;5.97;;;17.60;99.90;;;;;;5031179;28;20207;-69
2023/10/12 11:46:16;;;;;;;13.13;5.55;;;17.80;99.90;;;;;;5036013;28;20533;-70
2023/10/12 11:48:44;;;;;;;15.18;5.82;;;17.90;99.90;;;;;;5033719;28;20192;-69
2023/10/12 11:51:12;;;;;;;9.80;5.22;;;18.10;99.90;;;;;;5030328;28;20222;-69
2023/10/12 11:53:41;;;;;;;13.63;6.03;;;18.00;99.90;;;;;;5034723;28;20197;-69
2023/10/12 11:56:13;;;;;;;12.13;5.45;;;18.00;99.90;;;;;;5036390;28;20777;-69
2023/10/12 11:58:41;;;;;;;10.23;4.95;;;18.00;99.90;;;;;;5037580;28;20250;-68
2023/10/12 12:01:10;;;;;;;11.07;5.00;;;17.80;99.90;;;;;;5025135;28;20267;-76
2023/10/12 12:03:39;;;;;;;13.52;6.25;;;17.50;99.90;;;;;;5030092;28;20267;-73
2023/10/12 12:06:32;;;;;;;10.93;6.97;;;17.50;99.90;;;;;;5026606;28;20216;-69
2023/10/12 12:08:59;;;;;;;19.38;6.00;;;17.50;99.90;;;;;;5035479;28;20228;-75
2023/10/12 12:11:31;;;;;;;14.30;6.70;;;17.60;99.90;;;;;;5033678;28;20287;-71
2023/10/12 12:13:58;;;;;;;15.75;6.03;;;17.70;99.90;;;;;;5035010;28;20196;-74
2023/10/12 12:16:26;;;;;;;14.95;7.50;;;17.70;99.90;;;;;;5021339;28;20216;-69
2023/10/12 12:18:53;;;;;;;11.65;5.32;;;17.80;99.90;;;;;;5032957;28;20318;-65
2023/10/12 12:21:30;;;;;;;14.20;7.90;;;17.80;99.90;;;;;;5033354;28;20188;-65
2023/10/12 12:24:21;;;;;;;14.68;7.88;;;17.90;99.90;;;;;;5031190;28;20226;-65
2023/10/12 12:26:51;;;;;;;14.88;8.63;;;18.00;99.90;;;;;;5031676;28;20935;-65
2023/10/12 12:29:26;;;;;;;10.32;6.40;;;18.20;99.90;;;;;;5022089;28;20254;-65
2023/10/12 12:32:05;;;;;;;11.57;5.47;;;18.10;99.90;;;;;;5031570;28;20192;-65
2023/10/12 12:34:41;;;;;;;13.93;5.63;;;18.20;99.90;;;;;;5023215;28;20196;-66
2023/10/12 12:37:08;;;;;;;12.02;5.35;;;18.30;99.90;;;;;;5030626;28;20203;-71
2023/10/12 12:39:35;;;;;;;11.23;5.60;;;18.50;99.90;;;;;;5029507;28;20192;-69
2023/10/12 12:42:09;;;;;;;10.18;4.97;;;18.50;99.90;;;;;;5033620;28;20211;-74
2023/10/12 12:44:36;;;;;;;13.82;6.40;;;18.50;99.90;;;;;;5036284;28;20196;-70
2023/10/12 12:47:06;;;;;;;13.55;7.40;;;18.50;99.90;;;;;;5035577;28;20196;-67
2023/10/12 12:49:33;;;;;;;11.25;6.07;;;18.70;99.90;;;;;;5037672;28;20708;-65
2023/10/12 12:52:00;;;;;;;10.82;5.13;;;18.70;99.90;;;;;;5035024;28;20336;-66
2023/10/12 12:54:28;;;;;;;9.45;5.25;;;18.60;99.90;;;;;;5011551;28;20295;-68
2023/10/12 12:56:54;;;;;;;13.40;5.75;;;18.70;99.90;;;;;;5029939;28;20208;-66
2023/10/12 12:59:23;;;;;;;20.27;6.53;;;18.70;99.90;;;;;;5031898;28;20205;-64
2023/10/12 13:01:51;;;;;;;10.20;6.38;;;18.60;99.90;;;;;;5029282;28;20290;-70
2023/10/12 13:04:19;;;;;;;10.15;5.85;;;18.50;99.90;;;;;;5027977;28;20660;-68
2023/10/12 13:06:48;;;;;;;7.55;4.78;;;18.40;99.90;;;;;;5036511;28;20699;-67
2023/10/12 13:09:33;;;;;;;9.73;4.57;;;18.40;99.90;;;;;;5032066;28;20200;-66
2023/10/12 13:12:03;;;;;;;10.23;5.00;;;18.40;99.90;;;;;;5031495;28;20587;-65
2023/10/12 13:14:32;;;;;;;9.90;4.85;;;18.40;99.90;;;;;;5030146;28;20192;-65
2023/10/12 13:16:59;;;;;;;12.25;4.93;;;18.30;99.90;;;;;;5035908;28;20223;-71
2023/10/12 13:19:29;;;;;;;11.55;6.40;;;18.20;99.90;;;;;;5031917;28;20216;-65
2023/10/12 13:21:56;;;;;;;12.63;4.90;;;18.10;99.90;;;;;;5033462;28;20209;-65
2023/10/12 13:24:23;;;;;;;13.40;5.10;;;17.90;99.90;;;;;;5034490;28;20722;-65
2023/10/12 13:26:51;;;;;;;10.13;5.32;;;17.80;99.90;;;;;;5029518;28;20196;-65
2023/10/12 13:29:18;;;;;;;10.70;5.25;;;17.80;99.90;;;;;;5032013;28;20528;-65
2023/10/12 13:31:46;;;;;;;10.85;5.38;;;17.80;99.90;;;;;;5030067;28;20191;-65
2023/10/12 13:34:17;;;;;;;10.70;5.03;;;17.80;99.90;;;;;;5025635;28;20204;-67
2023/10/12 13:36:45;;;;;;;8.77;4.40;;;17.70;99.90;;;;;;5035329;28;20277;-66
2023/10/12 13:39:12;;;;;;;10.13;5.03;;;17.80;99.90;;;;;;5026679;28;20248;-65
2023/10/12 13:41:39;;;;;;;9.35;5.55;;;17.80;99.90;;;;;;5033866;28;20188;-65
2023/10/12 13:44:06;;;;;;;8.32;5.38;;;17.70;99.90;;;;;;5036084;28;20574;-70
2023/10/12 13:46:37;;;;;;;8.85;4.53;;;17.70;99.90;;;;;;5028230;28;20741;-76
2023/10/12 13:49:06;;;;;;;9.68;5.70;;;17.80;99.90;;;;;;5035579;28;20664;-70
2023/10/12 13:51:36;;;;;;;6.43;4.72;;;17.80;99.90;;;;;;5027235;28;20199;-69
2023/10/12 13:54:04;;;;;;;10.05;5.43;;;17.80;99.90;;;;;;5017483;28;20211;-68
2023/10/12 13:56:34;;;;;;;7.63;5.10;;;17.50;99.90;;;;;;5028173;28;20207;-69
2023/10/12 13:59:05;;;;;;;9.68;5.22;;;17.40;99.90;;;;;;5029485;28;20212;-69
2023/10/12 14:01:36;;;;;;;15.48;5.57;;;17.20;99.90;;;;;;5030738;28;20640;-80
2023/10/12 14:04:22;;;;;;;8.18;4.70;;;17.30;99.90;;;;;;5028466;28;20676;-70
2023/10/12 14:06:52;;;;;;;12.13;5.65;;;17.30;99.90;;;;;;5033806;28;20215;-74
2023/10/12 14:09:27;;;;;;;16.30;7.78;;;17.50;99.90;;;;;;5023713;28;20236;-70
2023/10/12 14:11:55;;;;;;;10.95;5.15;;;17.50;99.90;;;;;;5017894;28;20194;-69
2023/10/12 14:14:24;;;;;;;11.57;5.70;;;17.50;99.90;;;;;;5020979;28;20192;-70
2023/10/12 14:16:51;;;;;;;12.77;7.03;;;17.50;99.90;;;;;;5026939;28;20246;-69
2023/10/12 14:19:24;;;;;;;14.90;7.22;;;17.60;99.90;;;;;;5013401;28;20440;-69
2023/10/12 14:21:56;;;;;;;14.13;5.97;;;17.70;99.90;;;;;;5020573;28;20752;-69
2023/10/12 14:24:23;;;;;;;10.75;5.07;;;17.60;99.90;;;;;;5014425;28;20193;-68
2023/10/12 14:26:55;;;;;;;8.60;5.13;;;17.70;99.90;;;;;;5009602;28;20204;-70
2023/10/12 14:29:21;;;;;;;13.95;5.38;;;17.70;99.90;;;;;;5030173;28;20502;-70
2023/10/12 14:31:48;;;;;;;6.60;5.47;;;17.80;99.90;;;;;;5027280;28;20208;-70
2023/10/12 14:34:16;;;;;;;9.35;6.00;;;17.90;99.90;;;;;;5028616;28;20259;-70
2023/10/12 14:36:44;;;;;;;10.95;5.45;;;17.90;99.90;;;;;;5027816;28;20200;-64
2023/10/12 14:39:22;;;;;;;10.82;5.32;;;18.00;99.90;;;;;;5028689;28;20256;-67
2023/10/12 14:41:50;;;;;;;10.57;6.15;;;18.10;99.90;;;;;;5028564;28;20189;-65
2023/10/12 14:44:19;;;;;;;14.40;6.20;;;18.10;99.90;;;;;;5027424;28;20685;-64
2023/10/12 14:46:49;;;;;;;11.40;5.40;;;18.00;99.90;;;;;;5029231;28;20513;-65
2023/10/12 14:49:17;;;;;;;10.68;4.90;;;18.00;99.90;;;;;;5027874;28;20406;-65
2023/10/12 14:51:44;;;;;;;10.85;5.75;;;18.00;99.90;;;;;;5023679;28;20280;-64
2023/10/12 14:54:11;;;;;;;10.40;5.70;;;18.00;99.90;;;;;;5025474;28;20723;-71
2023/10/12 14:56:42;;;;;;;15.60;8.35;;;18.00;99.90;;;;;;5024894;28;20196;-71
2023/10/12 14:59:09;;;;;;;18.38;7.88;;;18.00;99.90;;;;;;5027383;28;20243;-71
2023/10/12 15:01:38;;;;;;;13.82;7.80;;;18.10;99.90;;;;;;5029242;28;20279;-71
2023/10/12 15:04:07;;;;;;;14.10;8.05;;;18.10;99.90;;;;;;5029032;28;20254;-66
2023/10/12 15:06:35;;;;;;;15.95;8.07;;;18.10;99.90;;;;;;5028679;28;20409;-65
2023/10/12 15:09:03;;;;;;;13.55;7.85;;;18.10;99.90;;;;;;5029434;28;20326;-65
2023/10/12 15:11:30;;;;;;;18.33;9.38;;;18.10;99.90;;;;;;5011613;28;20441;-64
2023/10/12 15:13:58;;;;;;;11.02;6.80;;;18.00;99.90;;;;;;5014012;28;20204;-66
2023/10/12 15:16:30;;;;;;;14.45;7.22;;;18.00;99.90;;;;;;5022153;28;20196;-65
2023/10/12 15:18:58;;;;;;;10.20;5.57;;;18.00;99.90;;;;;;5028173;28;20212;-66
2023/10/12 15:21:26;;;;;;;12.02;5.85;;;17.80;99.90;;;;;;5026752;28;20188;-65